sensor_id;sensor_type;location;lat;lon;timestamp;temperature;humidity
13231;DHT22;6681;53.254;10.398;2023-09-08T00:01:04;19.90;1.00
13231;DHT22;6681;53.254;10.398;2023-09-08T00:03:29;19.80;9.50
13231;DHT22;6681;53.254;10.398;2023-09-08T00:05:55;19.80;85.10
13231;DHT22;6681;53.254;10.398;2023-09-08T00:08:20;19.80;1.00
13231;DHT22;6681;53.254;10.398;2023-09-08T00:10:47;19.80;96.80
13231;DHT22;6681;53.254;10.398;2023-09-08T00:13:12;19.80;99.90
13231;DHT22;6681;53.254;10.398;2023-09-08T00:15:38;19.70;1.00
13231;DHT22;6681;53.254;10.398;2023-09-08T00:18:04;19.70;99.90
13231;DHT22;6681;53.254;10.398;2023-09-08T00:20:29;19.60;99.90
13231;DHT22;6681;53.254;10.398;2023-09-08T00:22:55;21.10;99.90
13231;DHT22;6681;53.254;10.398;2023-09-08T00:25:21;19.50;1.00
13231;DHT22;6681;53.254;10.398;2023-09-08T00:27:47;19.50;1.00
13231;DHT22;6681;53.254;10.398;2023-09-08T00:30:12;19.50;1.00
13231;DHT22;6681;53.254;10.398;2023-09-08T00:32:38;19.40;1.00
13231;DHT22;6681;53.254;10.398;2023-09-08T00:35:07;19.40;1.00
13231;DHT22;6681;53.254;10.398;2023-09-08T00:37:33;19.40;1.00
13231;DHT22;6681;53.254;10.398;2023-09-08T00:39:59;19.40;1.00
13231;DHT22;6681;53.254;10.398;2023-09-08T00:42:24;19.40;1.00
13231;DHT22;6681;53.254;10.398;2023-09-08T00:44:50;19.30;1.00
13231;DHT22;6681;53.254;10.398;2023-09-08T00:47:16;19.30;1.00
13231;DHT22;6681;53.254;10.398;2023-09-08T00:49:41;19.30;1.00
13231;DHT22;6681;53.254;10.398;2023-09-08T00:52:07;19.20;18.10
13231;DHT22;6681;53.254;10.398;2023-09-08T00:54:33;19.20;33.90
13231;DHT22;6681;53.254;10.398;2023-09-08T00:57:01;19.20;99.90
13231;DHT22;6681;53.254;10.398;2023-09-08T00:59:29;19.20;99.90
13231;DHT22;6681;53.254;10.398;2023-09-08T01:01:55;19.20;99.90
13231;DHT22;6681;53.254;10.398;2023-09-08T01:04:21;19.10;99.90
13231;DHT22;6681;53.254;10.398;2023-09-08T01:06:47;19.10;99.90
13231;DHT22;6681;53.254;10.398;2023-09-08T01:09:12;19.00;99.90
13231;DHT22;6681;53.254;10.398;2023-09-08T01:11:39;19.10;1.00
13231;DHT22;6681;53.254;10.398;2023-09-08T01:14:05;19.00;1.00
13231;DHT22;6681;53.254;10.398;2023-09-08T01:16:30;19.00;1.00
13231;DHT22;6681;53.254;10.398;2023-09-08T01:18:56;18.90;1.00
13231;DHT22;6681;53.254;10.398;2023-09-08T01:27:02;18.90;99.90
13231;DHT22;6681;53.254;10.398;2023-09-08T01:29:29;18.90;9.40
13231;DHT22;6681;53.254;10.398;2023-09-08T01:31:55;18.90;24.50
13231;DHT22;6681;53.254;10.398;2023-09-08T01:34:21;18.90;70.80
13231;DHT22;6681;53.254;10.398;2023-09-08T01:36:47;18.80;99.90
13231;DHT22;6681;53.254;10.398;2023-09-08T01:39:13;18.80;99.90
13231;DHT22;6681;53.254;10.398;2023-09-08T01:41:39;18.80;99.90
13231;DHT22;6681;53.254;10.398;2023-09-08T01:44:04;18.70;99.90
13231;DHT22;6681;53.254;10.398;2023-09-08T01:46:33;18.80;1.00
13231;DHT22;6681;53.254;10.398;2023-09-08T01:48:59;18.80;1.00
13231;DHT22;6681;53.254;10.398;2023-09-08T01:51:25;18.70;1.00
13231;DHT22;6681;53.254;10.398;2023-09-08T01:53:50;18.70;18.90
13231;DHT22;6681;53.254;10.398;2023-09-08T01:56:16;18.70;1.00
13231;DHT22;6681;53.254;10.398;2023-09-08T01:58:42;18.60;1.00
13231;DHT22;6681;53.254;10.398;2023-09-08T02:01:07;18.70;1.00
13231;DHT22;6681;53.254;10.398;2023-09-08T02:03:33;18.60;1.00
13231;DHT22;6681;53.254;10.398;2023-09-08T02:05:58;18.60;99.90
13231;DHT22;6681;53.254;10.398;2023-09-08T02:08:24;18.50;99.90
13231;DHT22;6681;53.254;10.398;2023-09-08T02:10:50;18.50;99.90
13231;DHT22;6681;53.254;10.398;2023-09-08T02:13:15;18.50;1.00
13231;DHT22;6681;53.254;10.398;2023-09-08T02:15:41;18.60;99.90
13231;DHT22;6681;53.254;10.398;2023-09-08T02:18:07;18.50;93.40
13231;DHT22;6681;53.254;10.398;2023-09-08T02:20:33;18.50;31.60
13231;DHT22;6681;53.254;10.398;2023-09-08T02:23:04;18.50;1.00
13231;DHT22;6681;53.254;10.398;2023-09-08T02:25:30;18.40;1.00
13231;DHT22;6681;53.254;10.398;2023-09-08T02:27:56;18.30;1.00
13231;DHT22;6681;53.254;10.398;2023-09-08T02:30:22;18.30;1.00
13231;DHT22;6681;53.254;10.398;2023-09-08T02:32:47;18.20;1.00
13231;DHT22;6681;53.254;10.398;2023-09-08T02:35:13;18.20;1.00
13231;DHT22;6681;53.254;10.398;2023-09-08T02:37:39;18.10;1.00
13231;DHT22;6681;53.254;10.398;2023-09-08T02:40:06;18.10;1.00
13231;DHT22;6681;53.254;10.398;2023-09-08T02:42:32;18.00;99.90
13231;DHT22;6681;53.254;10.398;2023-09-08T02:44:57;18.10;99.90
13231;DHT22;6681;53.254;10.398;2023-09-08T02:47:23;18.00;99.90
13231;DHT22;6681;53.254;10.398;2023-09-08T02:49:49;18.00;99.90
13231;DHT22;6681;53.254;10.398;2023-09-08T02:52:14;18.00;99.90
13231;DHT22;6681;53.254;10.398;2023-09-08T02:54:40;17.90;1.00
13231;DHT22;6681;53.254;10.398;2023-09-08T02:57:06;17.90;99.90
13231;DHT22;6681;53.254;10.398;2023-09-08T02:59:32;18.00;1.00
13231;DHT22;6681;53.254;10.398;2023-09-08T03:01:59;17.90;1.00
13231;DHT22;6681;53.254;10.398;2023-09-08T03:04:25;17.90;99.90
13231;DHT22;6681;53.254;10.398;2023-09-08T03:06:50;17.80;1.00
13231;DHT22;6681;53.254;10.398;2023-09-08T03:09:16;17.80;99.90
13231;DHT22;6681;53.254;10.398;2023-09-08T03:11:41;17.80;99.90
13231;DHT22;6681;53.254;10.398;2023-09-08T03:14:07;17.80;1.00
13231;DHT22;6681;53.254;10.398;2023-09-08T03:16:33;17.80;1.00
13231;DHT22;6681;53.254;10.398;2023-09-08T03:18:59;17.80;1.00
13231;DHT22;6681;53.254;10.398;2023-09-08T03:21:24;17.80;1.00
13231;DHT22;6681;53.254;10.398;2023-09-08T03:23:50;17.80;1.00
13231;DHT22;6681;53.254;10.398;2023-09-08T03:26:15;17.70;1.00
13231;DHT22;6681;53.254;10.398;2023-09-08T03:28:42;17.60;1.00
13231;DHT22;6681;53.254;10.398;2023-09-08T03:31:08;17.60;1.00
13231;DHT22;6681;53.254;10.398;2023-09-08T03:33:33;17.60;1.00
13231;DHT22;6681;53.254;10.398;2023-09-08T03:36:00;17.50;1.00
13231;DHT22;6681;53.254;10.398;2023-09-08T03:38:26;17.50;1.00
13231;DHT22;6681;53.254;10.398;2023-09-08T03:40:52;17.50;1.00
13231;DHT22;6681;53.254;10.398;2023-09-08T03:43:17;17.60;1.00
13231;DHT22;6681;53.254;10.398;2023-09-08T03:45:43;17.60;99.90
13231;DHT22;6681;53.254;10.398;2023-09-08T03:48:09;17.60;99.90
13231;DHT22;6681;53.254;10.398;2023-09-08T03:50:35;17.60;99.90
13231;DHT22;6681;53.254;10.398;2023-09-08T03:53:01;17.50;56.90
13231;DHT22;6681;53.254;10.398;2023-09-08T03:55:26;17.40;17.40
13231;DHT22;6681;53.254;10.398;2023-09-08T03:57:52;17.30;15.10
13231;DHT22;6681;53.254;10.398;2023-09-08T04:00:18;17.30;2.80
13231;DHT22;6681;53.254;10.398;2023-09-08T04:02:50;17.30;9.50
13231;DHT22;6681;53.254;10.398;2023-09-08T04:05:16;17.20;11.00
13231;DHT22;6681;53.254;10.398;2023-09-08T04:07:43;17.20;13.50
13231;DHT22;6681;53.254;10.398;2023-09-08T04:10:09;17.20;1.00
13231;DHT22;6681;53.254;10.398;2023-09-08T04:12:34;17.10;1.00
13231;DHT22;6681;53.254;10.398;2023-09-08T04:15:00;17.10;2.70
13231;DHT22;6681;53.254;10.398;2023-09-08T04:17:26;17.10;1.00
13231;DHT22;6681;53.254;10.398;2023-09-08T04:19:51;17.10;1.00
13231;DHT22;6681;53.254;10.398;2023-09-08T04:22:17;17.10;1.00
13231;DHT22;6681;53.254;10.398;2023-09-08T04:24:42;17.10;15.00
13231;DHT22;6681;53.254;10.398;2023-09-08T04:27:08;17.20;99.90
13231;DHT22;6681;53.254;10.398;2023-09-08T04:29:36;17.20;1.00
13231;DHT22;6681;53.254;10.398;2023-09-08T04:32:01;17.20;1.00
13231;DHT22;6681;53.254;10.398;2023-09-08T04:34:40;17.20;1.00
13231;DHT22;6681;53.254;10.398;2023-09-08T04:37:06;17.20;1.00
13231;DHT22;6681;53.254;10.398;2023-09-08T04:39:33;17.20;1.00
13231;DHT22;6681;53.254;10.398;2023-09-08T04:41:58;17.10;99.90
13231;DHT22;6681;53.254;10.398;2023-09-08T04:44:24;17.00;99.90
13231;DHT22;6681;53.254;10.398;2023-09-08T04:46:50;17.00;99.90
13231;DHT22;6681;53.254;10.398;2023-09-08T04:49:16;16.90;99.90
13231;DHT22;6681;53.254;10.398;2023-09-08T04:51:41;16.90;99.90
13231;DHT22;6681;53.254;10.398;2023-09-08T04:54:07;16.90;1.00
13231;DHT22;6681;53.254;10.398;2023-09-08T04:56:33;16.90;1.00
13231;DHT22;6681;53.254;10.398;2023-09-08T04:58:58;16.80;1.00
13231;DHT22;6681;53.254;10.398;2023-09-08T05:01:26;16.80;99.90
13231;DHT22;6681;53.254;10.398;2023-09-08T05:03:52;16.80;99.90
13231;DHT22;6681;53.254;10.398;2023-09-08T05:06:18;19.50;1.00
13231;DHT22;6681;53.254;10.398;2023-09-08T05:08:43;16.80;1.00
13231;DHT22;6681;53.254;10.398;2023-09-08T05:11:10;16.80;1.00
13231;DHT22;6681;53.254;10.398;2023-09-08T05:13:35;16.80;1.00
13231;DHT22;6681;53.254;10.398;2023-09-08T05:16:01;16.80;1.00
13231;DHT22;6681;53.254;10.398;2023-09-08T05:18:37;16.70;1.00
13231;DHT22;6681;53.254;10.398;2023-09-08T05:21:02;16.70;1.00
13231;DHT22;6681;53.254;10.398;2023-09-08T05:23:28;16.60;1.00
13231;DHT22;6681;53.254;10.398;2023-09-08T05:25:54;16.60;1.00
13231;DHT22;6681;53.254;10.398;2023-09-08T05:28:20;16.60;1.00
13231;DHT22;6681;53.254;10.398;2023-09-08T05:30:45;16.60;1.00
13231;DHT22;6681;53.254;10.398;2023-09-08T05:33:11;16.60;1.00
13231;DHT22;6681;53.254;10.398;2023-09-08T05:35:37;16.50;1.00
13231;DHT22;6681;53.254;10.398;2023-09-08T05:38:02;16.50;1.00
13231;DHT22;6681;53.254;10.398;2023-09-08T05:40:28;16.50;1.00
13231;DHT22;6681;53.254;10.398;2023-09-08T05:42:55;16.50;1.00
13231;DHT22;6681;53.254;10.398;2023-09-08T05:45:21;16.50;1.00
13231;DHT22;6681;53.254;10.398;2023-09-08T05:47:47;16.60;1.00
13231;DHT22;6681;53.254;10.398;2023-09-08T05:50:14;16.50;1.00
13231;DHT22;6681;53.254;10.398;2023-09-08T05:52:40;16.50;1.00
13231;DHT22;6681;53.254;10.398;2023-09-08T05:55:06;16.50;1.00
13231;DHT22;6681;53.254;10.398;2023-09-08T05:57:32;16.60;1.00
13231;DHT22;6681;53.254;10.398;2023-09-08T05:59:57;16.60;1.00
13231;DHT22;6681;53.254;10.398;2023-09-08T06:02:23;16.60;1.00
13231;DHT22;6681;53.254;10.398;2023-09-08T06:04:49;16.60;1.00
13231;DHT22;6681;53.254;10.398;2023-09-08T06:07:15;16.60;1.00
13231;DHT22;6681;53.254;10.398;2023-09-08T06:09:41;16.60;1.00
13231;DHT22;6681;53.254;10.398;2023-09-08T06:12:06;16.60;1.00
13231;DHT22;6681;53.254;10.398;2023-09-08T06:14:32;16.60;1.00
13231;DHT22;6681;53.254;10.398;2023-09-08T06:16:58;16.70;1.00
13231;DHT22;6681;53.254;10.398;2023-09-08T06:19:23;16.70;1.00
13231;DHT22;6681;53.254;10.398;2023-09-08T06:21:49;16.80;1.00
13231;DHT22;6681;53.254;10.398;2023-09-08T06:24:14;16.80;1.00
13231;DHT22;6681;53.254;10.398;2023-09-08T06:26:40;16.80;1.00
13231;DHT22;6681;53.254;10.398;2023-09-08T06:29:07;16.70;1.00
13231;DHT22;6681;53.254;10.398;2023-09-08T06:31:33;16.80;1.00
13231;DHT22;6681;53.254;10.398;2023-09-08T06:33:58;16.90;1.00
13231;DHT22;6681;53.254;10.398;2023-09-08T06:36:24;17.00;1.00
13231;DHT22;6681;53.254;10.398;2023-09-08T06:38:49;16.90;1.00
13231;DHT22;6681;53.254;10.398;2023-09-08T06:41:15;16.90;1.00
13231;DHT22;6681;53.254;10.398;2023-09-08T06:43:41;16.90;1.00
13231;DHT22;6681;53.254;10.398;2023-09-08T06:46:07;17.00;1.00
13231;DHT22;6681;53.254;10.398;2023-09-08T06:48:33;17.10;1.00
13231;DHT22;6681;53.254;10.398;2023-09-08T06:50:59;17.20;1.00
13231;DHT22;6681;53.254;10.398;2023-09-08T06:53:24;17.30;1.00
13231;DHT22;6681;53.254;10.398;2023-09-08T06:55:50;17.30;1.00
13231;DHT22;6681;53.254;10.398;2023-09-08T06:58:16;17.40;1.00
13231;DHT22;6681;53.254;10.398;2023-09-08T07:00:42;17.50;1.00
13231;DHT22;6681;53.254;10.398;2023-09-08T07:03:07;17.50;1.00
13231;DHT22;6681;53.254;10.398;2023-09-08T07:05:37;17.60;1.00
13231;DHT22;6681;53.254;10.398;2023-09-08T07:08:03;17.70;1.00
13231;DHT22;6681;53.254;10.398;2023-09-08T07:10:28;17.70;1.00
13231;DHT22;6681;53.254;10.398;2023-09-08T07:12:54;17.80;1.00
13231;DHT22;6681;53.254;10.398;2023-09-08T07:15:20;17.90;1.00
13231;DHT22;6681;53.254;10.398;2023-09-08T07:17:45;18.00;1.00
13231;DHT22;6681;53.254;10.398;2023-09-08T07:20:11;18.20;1.00
13231;DHT22;6681;53.254;10.398;2023-09-08T07:22:37;18.30;1.00
13231;DHT22;6681;53.254;10.398;2023-09-08T07:25:03;18.30;1.00
13231;DHT22;6681;53.254;10.398;2023-09-08T07:27:29;18.50;1.00
13231;DHT22;6681;53.254;10.398;2023-09-08T07:29:54;18.70;1.00
13231;DHT22;6681;53.254;10.398;2023-09-08T07:32:20;18.80;1.00
13231;DHT22;6681;53.254;10.398;2023-09-08T07:34:45;18.80;1.00
13231;DHT22;6681;53.254;10.398;2023-09-08T07:37:12;18.90;1.00
13231;DHT22;6681;53.254;10.398;2023-09-08T07:39:38;19.00;1.00
13231;DHT22;6681;53.254;10.398;2023-09-08T07:42:03;19.10;1.00
13231;DHT22;6681;53.254;10.398;2023-09-08T07:44:29;19.20;1.00
13231;DHT22;6681;53.254;10.398;2023-09-08T07:46:55;19.30;1.00
13231;DHT22;6681;53.254;10.398;2023-09-08T07:49:22;19.50;1.00
13231;DHT22;6681;53.254;10.398;2023-09-08T07:51:48;19.50;1.00
13231;DHT22;6681;53.254;10.398;2023-09-08T07:54:14;19.60;1.00
13231;DHT22;6681;53.254;10.398;2023-09-08T07:56:39;19.60;1.00
13231;DHT22;6681;53.254;10.398;2023-09-08T07:59:08;19.80;1.00
13231;DHT22;6681;53.254;10.398;2023-09-08T08:01:33;19.90;1.00
13231;DHT22;6681;53.254;10.398;2023-09-08T08:03:59;20.00;99.90
13231;DHT22;6681;53.254;10.398;2023-09-08T08:06:24;20.20;99.90
13231;DHT22;6681;53.254;10.398;2023-09-08T08:08:50;20.20;99.90
13231;DHT22;6681;53.254;10.398;2023-09-08T08:11:17;20.20;99.90
13231;DHT22;6681;53.254;10.398;2023-09-08T08:13:45;20.30;99.90
13231;DHT22;6681;53.254;10.398;2023-09-08T08:16:11;20.30;1.00
13231;DHT22;6681;53.254;10.398;2023-09-08T08:18:37;20.40;99.90
13231;DHT22;6681;53.254;10.398;2023-09-08T08:21:03;20.60;99.90
13231;DHT22;6681;53.254;10.398;2023-09-08T08:23:29;20.70;99.90
13231;DHT22;6681;53.254;10.398;2023-09-08T08:25:56;20.90;99.90
13231;DHT22;6681;53.254;10.398;2023-09-08T08:28:22;21.10;92.90
13231;DHT22;6681;53.254;10.398;2023-09-08T08:30:47;21.30;99.90
13231;DHT22;6681;53.254;10.398;2023-09-08T08:33:13;21.50;99.90
13231;DHT22;6681;53.254;10.398;2023-09-08T08:35:39;21.50;99.90
13231;DHT22;6681;53.254;10.398;2023-09-08T08:38:05;21.70;99.90
13231;DHT22;6681;53.254;10.398;2023-09-08T08:40:31;21.80;1.00
13231;DHT22;6681;53.254;10.398;2023-09-08T08:42:59;21.70;99.90
13231;DHT22;6681;53.254;10.398;2023-09-08T08:45:26;21.80;99.90
13231;DHT22;6681;53.254;10.398;2023-09-08T08:47:52;21.90;1.00
13231;DHT22;6681;53.254;10.398;2023-09-08T08:50:19;22.00;79.60
13231;DHT22;6681;53.254;10.398;2023-09-08T08:52:45;22.10;1.00
13231;DHT22;6681;53.254;10.398;2023-09-08T08:55:12;22.20;1.00
13231;DHT22;6681;53.254;10.398;2023-09-08T08:57:38;22.20;1.00
13231;DHT22;6681;53.254;10.398;2023-09-08T09:00:07;22.40;99.90
13231;DHT22;6681;53.254;10.398;2023-09-08T09:02:39;22.60;99.90
13231;DHT22;6681;53.254;10.398;2023-09-08T09:05:12;22.70;99.90
13231;DHT22;6681;53.254;10.398;2023-09-08T09:07:40;22.80;1.00
13231;DHT22;6681;53.254;10.398;2023-09-08T09:10:07;23.00;99.90
13231;DHT22;6681;53.254;10.398;2023-09-08T09:12:33;23.10;89.70
13231;DHT22;6681;53.254;10.398;2023-09-08T09:14:59;23.20;1.00
13231;DHT22;6681;53.254;10.398;2023-09-08T09:17:30;23.20;99.90
13231;DHT22;6681;53.254;10.398;2023-09-08T09:22:40;23.30;1.00
13231;DHT22;6681;53.254;10.398;2023-09-08T09:25:06;23.40;99.90
13231;DHT22;6681;53.254;10.398;2023-09-08T09:27:33;23.40;1.00
13231;DHT22;6681;53.254;10.398;2023-09-08T09:30:04;23.50;99.90
13231;DHT22;6681;53.254;10.398;2023-09-08T09:32:30;23.60;1.00
13231;DHT22;6681;53.254;10.398;2023-09-08T09:34:57;23.80;99.90
13231;DHT22;6681;53.254;10.398;2023-09-08T09:37:23;23.90;1.00
13231;DHT22;6681;53.254;10.398;2023-09-08T09:39:50;23.90;99.90
13231;DHT22;6681;53.254;10.398;2023-09-08T09:42:17;24.00;1.00
13231;DHT22;6681;53.254;10.398;2023-09-08T09:44:43;24.10;99.90
13231;DHT22;6681;53.254;10.398;2023-09-08T09:47:09;24.10;41.80
13231;DHT22;6681;53.254;10.398;2023-09-08T09:49:45;24.30;45.70
13231;DHT22;6681;53.254;10.398;2023-09-08T09:52:22;24.50;1.00
13231;DHT22;6681;53.254;10.398;2023-09-08T09:54:49;24.70;99.90
13231;DHT22;6681;53.254;10.398;2023-09-08T09:57:20;24.90;1.00
13231;DHT22;6681;53.254;10.398;2023-09-08T09:59:46;25.00;99.90
13231;DHT22;6681;53.254;10.398;2023-09-08T10:02:17;25.00;8.10
13231;DHT22;6681;53.254;10.398;2023-09-08T10:04:48;25.00;1.00
13231;DHT22;6681;53.254;10.398;2023-09-08T10:07:16;25.00;1.00
13231;DHT22;6681;53.254;10.398;2023-09-08T10:09:42;25.10;1.00
13231;DHT22;6681;53.254;10.398;2023-09-08T10:12:09;25.20;1.00
13231;DHT22;6681;53.254;10.398;2023-09-08T10:14:36;25.30;70.70
13231;DHT22;6681;53.254;10.398;2023-09-08T10:17:03;25.30;1.00
13231;DHT22;6681;53.254;10.398;2023-09-08T10:19:31;25.40;1.00
13231;DHT22;6681;53.254;10.398;2023-09-08T10:22:00;25.50;99.90
13231;DHT22;6681;53.254;10.398;2023-09-08T10:24:33;25.60;1.00
13231;DHT22;6681;53.254;10.398;2023-09-08T10:27:12;25.70;1.00
13231;DHT22;6681;53.254;10.398;2023-09-08T10:29:38;25.80;1.30
13231;DHT22;6681;53.254;10.398;2023-09-08T10:32:06;25.90;1.00
13231;DHT22;6681;53.254;10.398;2023-09-08T10:34:34;25.90;99.90
13231;DHT22;6681;53.254;10.398;2023-09-08T10:37:00;25.90;99.90
13231;DHT22;6681;53.254;10.398;2023-09-08T10:39:35;26.00;99.90
13231;DHT22;6681;53.254;10.398;2023-09-08T10:47:26;26.40;1.00
13231;DHT22;6681;53.254;10.398;2023-09-08T10:49:56;26.50;1.00
13231;DHT22;6681;53.254;10.398;2023-09-08T10:52:24;26.60;1.00
13231;DHT22;6681;53.254;10.398;2023-09-08T10:54:52;26.60;99.90
13231;DHT22;6681;53.254;10.398;2023-09-08T10:57:20;26.80;99.90
13231;DHT22;6681;53.254;10.398;2023-09-08T11:00:03;26.90;99.90
13231;DHT22;6681;53.254;10.398;2023-09-08T11:02:42;27.00;1.00
13231;DHT22;6681;53.254;10.398;2023-09-08T11:05:14;27.10;99.90
13231;DHT22;6681;53.254;10.398;2023-09-08T11:07:44;27.30;99.90
13231;DHT22;6681;53.254;10.398;2023-09-08T11:10:11;27.30;99.90
13231;DHT22;6681;53.254;10.398;2023-09-08T11:12:37;27.40;99.90
13231;DHT22;6681;53.254;10.398;2023-09-08T11:15:05;27.50;99.90
13231;DHT22;6681;53.254;10.398;2023-09-08T11:17:33;27.60;99.90
13231;DHT22;6681;53.254;10.398;2023-09-08T11:20:00;27.70;99.90
13231;DHT22;6681;53.254;10.398;2023-09-08T11:22:26;27.80;1.00
13231;DHT22;6681;53.254;10.398;2023-09-08T11:24:53;27.80;99.90
13231;DHT22;6681;53.254;10.398;2023-09-08T11:27:20;27.90;2.40
13231;DHT22;6681;53.254;10.398;2023-09-08T11:29:46;28.00;2.90
13231;DHT22;6681;53.254;10.398;2023-09-08T11:32:12;28.10;7.10
13231;DHT22;6681;53.254;10.398;2023-09-08T11:34:38;28.10;1.00
13231;DHT22;6681;53.254;10.398;2023-09-08T11:37:09;28.10;47.10
13231;DHT22;6681;53.254;10.398;2023-09-08T11:39:38;28.20;24.60
13231;DHT22;6681;53.254;10.398;2023-09-08T11:42:04;28.30;1.00
13231;DHT22;6681;53.254;10.398;2023-09-08T11:44:30;28.40;1.00
13231;DHT22;6681;53.254;10.398;2023-09-08T11:46:55;28.50;1.00
13231;DHT22;6681;53.254;10.398;2023-09-08T11:49:23;28.60;1.00
13231;DHT22;6681;53.254;10.398;2023-09-08T11:51:49;28.60;1.00
13231;DHT22;6681;53.254;10.398;2023-09-08T11:54:15;28.60;1.00
13231;DHT22;6681;53.254;10.398;2023-09-08T11:56:41;28.60;1.00
13231;DHT22;6681;53.254;10.398;2023-09-08T11:59:07;28.70;1.00
13231;DHT22;6681;53.254;10.398;2023-09-08T12:01:33;28.80;1.00
13231;DHT22;6681;53.254;10.398;2023-09-08T12:03:59;28.90;1.00
13231;DHT22;6681;53.254;10.398;2023-09-08T12:06:28;29.00;1.00
13231;DHT22;6681;53.254;10.398;2023-09-08T12:08:56;29.00;1.00
13231;DHT22;6681;53.254;10.398;2023-09-08T12:11:32;29.10;1.00
13231;DHT22;6681;53.254;10.398;2023-09-08T12:14:01;29.20;1.00
13231;DHT22;6681;53.254;10.398;2023-09-08T12:16:26;29.20;1.00
13231;DHT22;6681;53.254;10.398;2023-09-08T12:18:52;29.30;1.00
13231;DHT22;6681;53.254;10.398;2023-09-08T12:21:17;29.40;1.00
13231;DHT22;6681;53.254;10.398;2023-09-08T12:23:54;29.40;1.00
13231;DHT22;6681;53.254;10.398;2023-09-08T12:26:20;29.50;1.00
13231;DHT22;6681;53.254;10.398;2023-09-08T12:28:46;29.40;1.00
13231;DHT22;6681;53.254;10.398;2023-09-08T12:31:16;29.40;1.00
13231;DHT22;6681;53.254;10.398;2023-09-08T12:33:43;29.40;1.00
13231;DHT22;6681;53.254;10.398;2023-09-08T12:36:17;29.50;1.00
13231;DHT22;6681;53.254;10.398;2023-09-08T12:38:52;29.50;1.00
13231;DHT22;6681;53.254;10.398;2023-09-08T12:41:19;29.40;1.00
13231;DHT22;6681;53.254;10.398;2023-09-08T12:43:45;29.50;1.00
13231;DHT22;6681;53.254;10.398;2023-09-08T12:46:11;29.50;1.00
13231;DHT22;6681;53.254;10.398;2023-09-08T12:48:37;29.50;1.00
13231;DHT22;6681;53.254;10.398;2023-09-08T12:51:03;29.50;1.00
13231;DHT22;6681;53.254;10.398;2023-09-08T12:53:34;29.50;1.00
13231;DHT22;6681;53.254;10.398;2023-09-08T12:56:02;29.60;1.00
13231;DHT22;6681;53.254;10.398;2023-09-08T12:58:28;29.70;1.00
13231;DHT22;6681;53.254;10.398;2023-09-08T13:00:54;29.80;1.00
13231;DHT22;6681;53.254;10.398;2023-09-08T13:03:20;29.80;1.00
13231;DHT22;6681;53.254;10.398;2023-09-08T13:05:45;29.80;1.00
13231;DHT22;6681;53.254;10.398;2023-09-08T13:08:11;29.90;1.00
13231;DHT22;6681;53.254;10.398;2023-09-08T13:10:37;29.90;1.00
13231;DHT22;6681;53.254;10.398;2023-09-08T13:13:03;29.70;1.00
13231;DHT22;6681;53.254;10.398;2023-09-08T13:15:29;29.80;1.00
13231;DHT22;6681;53.254;10.398;2023-09-08T13:17:56;29.90;1.00
13231;DHT22;6681;53.254;10.398;2023-09-08T13:20:22;30.00;1.00
13231;DHT22;6681;53.254;10.398;2023-09-08T13:22:47;30.20;1.00
13231;DHT22;6681;53.254;10.398;2023-09-08T13:25:13;30.50;1.00
13231;DHT22;6681;53.254;10.398;2023-09-08T13:27:41;30.90;1.00
13231;DHT22;6681;53.254;10.398;2023-09-08T13:30:11;30.90;1.00
13231;DHT22;6681;53.254;10.398;2023-09-08T13:32:37;31.00;1.00
13231;DHT22;6681;53.254;10.398;2023-09-08T13:35:04;31.30;1.00
13231;DHT22;6681;53.254;10.398;2023-09-08T13:37:30;31.30;1.00
13231;DHT22;6681;53.254;10.398;2023-09-08T13:39:56;31.20;1.00
13231;DHT22;6681;53.254;10.398;2023-09-08T13:42:22;31.10;1.00
13231;DHT22;6681;53.254;10.398;2023-09-08T13:44:48;30.90;1.00
13231;DHT22;6681;53.254;10.398;2023-09-08T13:47:14;31.10;1.00
13231;DHT22;6681;53.254;10.398;2023-09-08T13:49:39;30.90;1.00
13231;DHT22;6681;53.254;10.398;2023-09-08T13:52:05;31.00;1.00
13231;DHT22;6681;53.254;10.398;2023-09-08T13:54:32;31.10;1.00
13231;DHT22;6681;53.254;10.398;2023-09-08T13:57:06;31.30;1.00
13231;DHT22;6681;53.254;10.398;2023-09-08T13:59:32;31.40;1.00
13231;DHT22;6681;53.254;10.398;2023-09-08T14:01:57;31.30;1.00
13231;DHT22;6681;53.254;10.398;2023-09-08T14:04:25;31.60;1.00
13231;DHT22;6681;53.254;10.398;2023-09-08T14:06:50;31.40;1.00
13231;DHT22;6681;53.254;10.398;2023-09-08T14:09:17;31.30;1.00
13231;DHT22;6681;53.254;10.398;2023-09-08T14:11:42;31.20;1.00
13231;DHT22;6681;53.254;10.398;2023-09-08T14:14:08;31.30;1.00
13231;DHT22;6681;53.254;10.398;2023-09-08T14:16:33;31.40;1.00
13231;DHT22;6681;53.254;10.398;2023-09-08T14:19:00;31.50;1.00
13231;DHT22;6681;53.254;10.398;2023-09-08T14:21:26;31.50;1.00
13231;DHT22;6681;53.254;10.398;2023-09-08T14:23:51;31.90;1.00
13231;DHT22;6681;53.254;10.398;2023-09-08T14:26:17;31.90;1.00
13231;DHT22;6681;53.254;10.398;2023-09-08T14:28:45;32.00;1.00
13231;DHT22;6681;53.254;10.398;2023-09-08T14:31:10;32.00;1.00
13231;DHT22;6681;53.254;10.398;2023-09-08T14:33:36;31.90;1.00
13231;DHT22;6681;53.254;10.398;2023-09-08T14:36:02;31.80;1.00
13231;DHT22;6681;53.254;10.398;2023-09-08T14:38:29;31.80;1.00
13231;DHT22;6681;53.254;10.398;2023-09-08T14:41:01;31.60;1.00
13231;DHT22;6681;53.254;10.398;2023-09-08T14:43:28;31.40;1.00
13231;DHT22;6681;53.254;10.398;2023-09-08T14:45:55;31.60;1.00
13231;DHT22;6681;53.254;10.398;2023-09-08T14:48:24;31.50;1.00
13231;DHT22;6681;53.254;10.398;2023-09-08T14:50:50;31.60;1.00
13231;DHT22;6681;53.254;10.398;2023-09-08T14:53:16;31.60;1.00
13231;DHT22;6681;53.254;10.398;2023-09-08T14:55:41;31.80;1.00
13231;DHT22;6681;53.254;10.398;2023-09-08T14:58:09;32.10;1.00
13231;DHT22;6681;53.254;10.398;2023-09-08T15:00:36;31.70;1.00
13231;DHT22;6681;53.254;10.398;2023-09-08T15:03:02;32.10;1.00
13231;DHT22;6681;53.254;10.398;2023-09-08T15:05:33;31.80;1.00
13231;DHT22;6681;53.254;10.398;2023-09-08T15:07:59;32.00;1.00
13231;DHT22;6681;53.254;10.398;2023-09-08T15:10:25;31.90;1.00
13231;DHT22;6681;53.254;10.398;2023-09-08T15:12:51;31.90;1.00
13231;DHT22;6681;53.254;10.398;2023-09-08T15:15:16;32.20;1.00
13231;DHT22;6681;53.254;10.398;2023-09-08T15:17:44;32.20;1.00
13231;DHT22;6681;53.254;10.398;2023-09-08T15:20:10;32.10;1.00
13231;DHT22;6681;53.254;10.398;2023-09-08T15:22:35;31.80;1.00
13231;DHT22;6681;53.254;10.398;2023-09-08T15:25:01;31.50;1.00
13231;DHT22;6681;53.254;10.398;2023-09-08T15:27:27;31.40;1.00
13231;DHT22;6681;53.254;10.398;2023-09-08T15:29:53;31.20;1.00
13231;DHT22;6681;53.254;10.398;2023-09-08T15:32:18;31.40;1.00
13231;DHT22;6681;53.254;10.398;2023-09-08T15:34:44;31.30;1.00
13231;DHT22;6681;53.254;10.398;2023-09-08T15:37:12;31.30;1.00
13231;DHT22;6681;53.254;10.398;2023-09-08T15:39:38;31.30;1.00
13231;DHT22;6681;53.254;10.398;2023-09-08T15:42:04;31.10;1.00
13231;DHT22;6681;53.254;10.398;2023-09-08T15:44:29;31.00;1.00
13231;DHT22;6681;53.254;10.398;2023-09-08T15:46:55;30.90;1.00
13231;DHT22;6681;53.254;10.398;2023-09-08T15:49:21;30.80;1.00
13231;DHT22;6681;53.254;10.398;2023-09-08T15:51:46;30.80;1.00